createdAt,value
2023-02-28T00:01:51.541Z,38.88
2023-02-28T00:05:02.254Z,42.53
2023-02-28T00:08:04.811Z,41.60
2023-02-28T00:11:10.883Z,46.97
2023-02-28T00:14:13.382Z,47.15
2023-02-28T00:17:17.370Z,41.30
2023-02-28T00:20:20.417Z,33.33
2023-02-28T00:23:22.850Z,33.00
2023-02-28T00:26:25.269Z,26.80
2023-02-28T00:29:27.619Z,22.58
2023-02-28T00:32:30.713Z,22.83
2023-02-28T00:35:33.127Z,19.30
2023-02-28T00:38:35.705Z,26.98
2023-02-28T00:41:38.057Z,27.50
2023-02-28T00:44:40.441Z,45.58
2023-02-28T00:47:42.873Z,62.00
2023-02-28T00:50:45.387Z,56.85
2023-02-28T00:53:47.740Z,70.28
2023-02-28T00:56:50.317Z,52.42
2023-02-28T00:59:55.273Z,58.20
2023-02-28T01:02:57.987Z,48.45
2023-02-28T01:06:00.674Z,41.17
2023-02-28T01:09:04.092Z,42.60
2023-02-28T01:12:06.870Z,42.15
2023-02-28T01:15:12.481Z,33.97
2023-02-28T01:18:14.960Z,56.10
2023-02-28T01:21:19.918Z,84.85
2023-02-28T01:24:22.304Z,63.95
2023-02-28T01:27:24.819Z,61.05
2023-02-28T01:30:28.581Z,67.75
2023-02-28T01:33:31.387Z,48.00
2023-02-28T01:36:35.520Z,61.58
2023-02-28T01:39:37.886Z,60.15
2023-02-28T01:42:40.229Z,48.78
2023-02-28T01:45:43.053Z,44.25
2023-02-28T01:49:05.685Z,28.90
2023-02-28T01:52:08.507Z,34.88
2023-02-28T01:55:11.992Z,36.20
2023-02-28T01:58:14.795Z,35.40
2023-02-28T02:01:22.648Z,23.47
2023-02-28T02:04:28.710Z,34.47
2023-02-28T02:07:34.180Z,33.30
2023-02-28T02:10:45.799Z,35.53
2023-02-28T02:14:04.639Z,28.42
2023-02-28T02:17:24.847Z,29.98
2023-02-28T02:20:53.613Z,29.15
2023-02-28T02:24:20.645Z,40.70
2023-02-28T02:27:58.629Z,35.67
2023-02-28T02:31:16.020Z,33.15
2023-02-28T02:34:44.337Z,33.90
2023-02-28T02:38:03.894Z,32.38
2023-02-28T02:41:29.498Z,33.92
2023-02-28T02:44:51.850Z,35.90
2023-02-28T02:47:55.158Z,31.95
2023-02-28T02:51:01.995Z,34.85
2023-02-28T02:54:12.016Z,35.03
2023-02-28T02:57:21.832Z,33.22
2023-02-28T03:00:32.197Z,37.20
2023-02-28T03:03:35.018Z,41.97
2023-02-28T03:09:40.782Z,40.38
2023-02-28T03:12:52.218Z,26.38
2023-02-28T03:16:07.543Z,36.65
2023-02-28T03:19:28.328Z,39.22
2023-02-28T03:22:36.130Z,37.83
2023-02-28T03:25:47.630Z,37.08
2023-02-28T03:28:58.296Z,36.15
2023-02-28T03:32:22.703Z,31.55
2023-02-28T03:35:28.670Z,31.83
2023-02-28T03:38:47.764Z,42.90
2023-02-28T03:41:54.701Z,42.75
2023-02-28T03:45:02.825Z,44.30
2023-02-28T03:48:17.965Z,41.28
2023-02-28T03:51:23.153Z,42.03
2023-02-28T03:54:29.968Z,36.80
2023-02-28T03:57:42.423Z,41.30
2023-02-28T04:00:48.624Z,47.10
2023-02-28T04:03:51.258Z,40.47
2023-02-28T04:07:03.265Z,44.63
2023-02-28T04:10:06.660Z,41.60
2023-02-28T04:13:09.026Z,52.60
2023-02-28T04:16:18.830Z,52.65
2023-02-28T04:19:27.021Z,42.88
2023-02-28T04:22:29.253Z,42.90
2023-02-28T04:25:31.665Z,41.72
2023-02-28T04:28:34.912Z,40.08
2023-02-28T04:31:37.451Z,41.17
2023-02-28T04:34:40.043Z,37.42
2023-02-28T04:37:42.358Z,38.35
2023-02-28T04:40:44.772Z,41.72
2023-02-28T04:43:47.128Z,42.75
2023-02-28T04:46:50.325Z,36.90
2023-02-28T04:49:52.726Z,46.80
2023-02-28T04:52:55.763Z,41.13
2023-02-28T04:55:59.293Z,34.30
2023-02-28T04:59:01.583Z,36.05
2023-02-28T05:02:08.116Z,37.17
2023-02-28T05:05:10.801Z,39.13
2023-02-28T05:08:13.201Z,40.92
2023-02-28T05:11:27.602Z,39.17
2023-02-28T05:14:30.288Z,42.13
2023-02-28T05:17:32.963Z,45.88
2023-02-28T05:20:35.249Z,53.13
2023-02-28T05:23:37.712Z,51.85
2023-02-28T05:26:42.558Z,82.55
2023-02-28T05:29:45.040Z,76.53
2023-02-28T05:32:52.085Z,57.35
2023-02-28T05:35:54.626Z,59.33
2023-02-28T05:38:57.020Z,57.90
2023-02-28T05:41:59.436Z,70.88
2023-02-28T05:45:01.918Z,61.85
2023-02-28T05:48:04.595Z,44.95
2023-02-28T05:51:07.956Z,55.78
2023-02-28T05:54:13.513Z,55.20
2023-02-28T05:57:24.310Z,51.38
2023-02-28T06:00:27.428Z,53.30
2023-02-28T06:03:29.900Z,60.33
2023-02-28T06:06:32.523Z,56.67
2023-02-28T06:09:35.016Z,42.30
2023-02-28T06:12:37.474Z,59.17
2023-02-28T06:15:40.268Z,60.25
2023-02-28T06:18:42.957Z,45.20
2023-02-28T06:21:45.405Z,71.18
2023-02-28T06:24:47.692Z,78.20
2023-02-28T06:27:50.324Z,129.68
2023-02-28T06:30:53.510Z,141.18
2023-02-28T06:33:57.150Z,116.80
2023-02-28T06:37:03.231Z,82.10
2023-02-28T06:40:07.992Z,92.80
2023-02-28T06:43:10.352Z,98.95
2023-02-28T06:46:15.792Z,90.95
2023-02-28T06:49:18.271Z,90.15
2023-02-28T06:52:20.658Z,93.68
2023-02-28T06:55:23.051Z,90.38
2023-02-28T06:58:25.566Z,73.22
2023-02-28T07:01:29.438Z,71.15
2023-02-28T07:04:32.194Z,70.97
2023-02-28T07:07:35.277Z,74.20
2023-02-28T07:10:41.051Z,67.22
2023-02-28T07:13:43.448Z,64.47
2023-02-28T07:16:46.663Z,58.42
2023-02-28T07:19:49.117Z,64.45
2023-02-28T07:22:57.343Z,53.97
2023-02-28T07:25:59.748Z,55.97
2023-02-28T07:29:03.288Z,49.90
2023-02-28T07:32:06.035Z,55.80
2023-02-28T07:35:08.968Z,58.30
2023-02-28T07:38:11.684Z,47.83
2023-02-28T07:41:14.166Z,44.05
2023-02-28T07:44:16.754Z,38.80
2023-02-28T07:47:19.111Z,40.25
2023-02-28T07:50:21.608Z,42.70
2023-02-28T07:53:24.104Z,60.08
2023-02-28T07:56:26.582Z,72.22
2023-02-28T07:59:31.254Z,64.80
2023-02-28T08:02:35.012Z,70.45
2023-02-28T08:05:41.296Z,63.53
2023-02-28T08:08:43.706Z,52.22
2023-02-28T08:11:46.084Z,47.40
2023-02-28T08:14:48.383Z,45.20
2023-02-28T08:17:50.656Z,40.20
2023-02-28T08:20:53.054Z,46.15
2023-02-28T08:23:55.475Z,47.83
2023-02-28T08:26:58.122Z,61.92
2023-02-28T08:30:00.443Z,57.95
2023-02-28T08:33:03.040Z,50.80
2023-02-28T08:36:05.848Z,46.15
2023-02-28T08:39:08.819Z,34.63
2023-02-28T08:42:11.450Z,23.05
2023-02-28T08:45:15.260Z,31.38
2023-02-28T08:51:27.784Z,40.60
2023-02-28T08:54:32.506Z,39.83
2023-02-28T08:57:34.896Z,44.17
2023-02-28T09:00:37.834Z,46.00
2023-02-28T09:03:42.541Z,38.83
2023-02-28T09:06:45.576Z,38.97
2023-02-28T09:09:57.912Z,45.43
2023-02-28T09:13:00.306Z,41.10
2023-02-28T09:16:04.235Z,48.97
2023-02-28T09:22:08.840Z,48.90
2023-02-28T09:25:11.179Z,48.38
2023-02-28T09:28:13.493Z,46.40
2023-02-28T09:31:22.162Z,49.20
2023-02-28T09:34:24.612Z,45.35
2023-02-28T09:37:32.133Z,34.42
2023-02-28T09:40:37.940Z,24.48
2023-02-28T09:43:43.066Z,19.20
2023-02-28T09:46:48.978Z,12.00
2023-02-28T09:49:51.714Z,18.05
2023-02-28T09:52:55.181Z,20.77
2023-02-28T09:56:00.749Z,8.93
2023-02-28T09:59:07.084Z,13.45
2023-02-28T10:02:12.691Z,12.23
2023-02-28T10:05:18.301Z,14.57
2023-02-28T10:08:46.255Z,9.10
2023-02-28T10:11:48.957Z,12.88
2023-02-28T10:14:53.636Z,10.57
2023-02-28T10:18:08.565Z,13.70
2023-02-28T10:21:21.257Z,16.35
2023-02-28T10:24:37.456Z,15.38
2023-02-28T10:27:39.880Z,15.88
2023-02-28T10:30:45.258Z,11.60
2023-02-28T10:33:47.911Z,11.50
2023-02-28T10:36:51.159Z,16.75
2023-02-28T10:39:53.561Z,12.65
2023-02-28T10:43:05.793Z,20.52
2023-02-28T10:46:10.971Z,20.77
2023-02-28T10:49:23.466Z,16.80
2023-02-28T10:52:38.468Z,15.95
2023-02-28T10:55:40.842Z,16.05
2023-02-28T10:58:58.340Z,18.25
2023-02-28T11:02:01.048Z,17.23
2023-02-28T11:05:03.618Z,16.40
2023-02-28T11:08:15.952Z,20.27
2023-02-28T11:11:19.333Z,21.67
2023-02-28T11:14:23.800Z,19.25
2023-02-28T11:17:28.990Z,18.23
2023-02-28T11:20:34.344Z,19.80
2023-02-28T11:23:38.720Z,17.63
2023-02-28T11:26:46.632Z,23.58
2023-02-28T11:29:49.335Z,18.08
2023-02-28T11:32:51.980Z,18.58
2023-02-28T11:35:54.931Z,13.27
2023-02-28T11:39:11.919Z,13.82
2023-02-28T11:42:19.913Z,11.88
2023-02-28T11:45:43.941Z,9.00
2023-02-28T11:48:55.228Z,8.48
2023-02-28T11:52:15.966Z,7.47
2023-02-28T11:55:21.035Z,7.18
2023-02-28T11:58:33.007Z,5.55
2023-02-28T12:01:48.477Z,7.57
2023-02-28T12:05:14.814Z,8.23
2023-02-28T12:08:35.875Z,6.13
2023-02-28T12:11:54.996Z,7.38
2023-02-28T12:15:51.255Z,7.38
2023-02-28T12:19:24.234Z,5.50
2023-02-28T12:22:31.392Z,8.90
2023-02-28T12:26:05.693Z,8.55
2023-02-28T12:29:30.655Z,9.07
2023-02-28T12:32:40.046Z,8.68
2023-02-28T12:35:56.802Z,10.65
2023-02-28T12:39:11.632Z,9.73
2023-02-28T12:42:27.204Z,12.10
2023-02-28T12:45:44.086Z,6.53
2023-02-28T12:48:49.973Z,7.90
2023-02-28T12:51:52.669Z,7.88
2023-02-28T12:55:00.033Z,9.32
2023-02-28T12:58:31.405Z,9.48
2023-02-28T13:01:44.761Z,10.85
2023-02-28T13:05:24.433Z,12.55
2023-02-28T13:08:57.567Z,9.77
2023-02-28T13:12:00.612Z,6.18
2023-02-28T13:15:06.328Z,5.47
2023-02-28T13:18:38.413Z,6.63
2023-02-28T13:21:45.696Z,9.40
2023-02-28T13:24:55.337Z,10.52
2023-02-28T13:27:58.161Z,5.72
2023-02-28T13:31:01.389Z,4.95
2023-02-28T13:34:13.079Z,5.93
2023-02-28T13:37:21.396Z,7.60
2023-02-28T13:40:38.093Z,7.97
2023-02-28T13:44:18.561Z,8.98
2023-02-28T13:47:26.112Z,12.35
2023-02-28T13:50:28.428Z,9.77
2023-02-28T13:54:09.032Z,8.35
2023-02-28T13:57:17.085Z,9.27
2023-02-28T14:00:37.857Z,9.80
2023-02-28T14:04:33.571Z,12.55
2023-02-28T14:07:45.578Z,12.07
2023-02-28T14:10:51.274Z,11.45
2023-02-28T14:13:53.734Z,14.85
2023-02-28T14:16:56.329Z,12.93
2023-02-28T14:19:59.587Z,11.93
2023-02-28T14:23:06.726Z,8.27
2023-02-28T14:26:31.087Z,8.23
2023-02-28T14:29:52.302Z,7.00
2023-02-28T14:33:13.073Z,5.28
2023-02-28T14:36:35.037Z,9.70
2023-02-28T14:39:38.040Z,8.63
2023-02-28T14:42:44.938Z,6.68
2023-02-28T14:45:51.937Z,7.25
2023-02-28T14:48:54.312Z,8.00
2023-02-28T14:52:17.041Z,8.90
2023-02-28T14:55:29.765Z,9.80
2023-02-28T14:58:34.534Z,12.38
2023-02-28T15:01:37.067Z,10.90
2023-02-28T15:04:39.571Z,8.52
2023-02-28T15:07:41.994Z,9.48
2023-02-28T15:11:13.397Z,10.70
2023-02-28T15:14:20.164Z,12.82
2023-02-28T15:17:24.992Z,12.65
2023-02-28T15:20:28.118Z,9.25
2023-02-28T15:23:32.322Z,11.07
2023-02-28T15:29:58.997Z,13.00
2023-02-28T15:33:22.531Z,12.70
2023-02-28T15:36:32.937Z,17.00
2023-02-28T15:39:43.762Z,13.82
2023-02-28T15:43:01.307Z,18.17
2023-02-28T15:46:11.904Z,41.95
2023-02-28T15:49:21.349Z,43.45
2023-02-28T15:52:30.466Z,41.75
2023-02-28T15:55:32.900Z,53.13
2023-02-28T15:58:37.791Z,61.78
2023-02-28T16:01:40.570Z,53.13
2023-02-28T16:05:11.809Z,30.85
2023-02-28T16:08:17.039Z,112.72
2023-02-28T16:11:20.853Z,149.98
2023-02-28T16:14:33.577Z,119.03
2023-02-28T16:17:39.524Z,72.68
2023-02-28T16:20:42.598Z,45.95
2023-02-28T16:23:44.926Z,51.73
2023-02-28T16:26:49.510Z,56.58
2023-02-28T16:29:51.916Z,62.05
2023-02-28T16:32:55.519Z,56.80
2023-02-28T16:35:57.947Z,51.80
2023-02-28T16:39:00.464Z,59.92
2023-02-28T16:42:03.096Z,52.05
2023-02-28T16:45:05.847Z,85.68
2023-02-28T16:48:13.098Z,72.30
2023-02-28T16:51:17.105Z,129.57
2023-02-28T16:57:24.900Z,36.05
2023-02-28T17:00:29.449Z,35.78
2023-02-28T17:03:33.662Z,52.88
2023-02-28T17:06:36.484Z,62.35
2023-02-28T17:09:42.609Z,68.53
2023-02-28T17:12:46.455Z,55.10
2023-02-28T17:15:49.604Z,49.88
2023-02-28T17:18:52.568Z,37.72
2023-02-28T17:21:55.016Z,119.88
2023-02-28T17:25:01.754Z,119.13
2023-02-28T17:28:04.429Z,74.95
2023-02-28T17:31:06.856Z,48.10
2023-02-28T17:34:09.486Z,33.08
2023-02-28T17:37:11.847Z,24.83
2023-02-28T17:40:20.093Z,26.00
2023-02-28T17:43:22.493Z,28.60
2023-02-28T17:46:26.228Z,29.42
2023-02-28T17:49:28.815Z,27.73
2023-02-28T17:52:32.050Z,32.35
2023-02-28T17:55:35.561Z,26.63
2023-02-28T17:58:38.148Z,41.58
2023-02-28T18:01:41.019Z,40.90
2023-02-28T18:04:43.830Z,42.10
2023-02-28T18:07:46.369Z,42.72
2023-02-28T18:10:48.936Z,49.50
2023-02-28T18:13:53.785Z,64.78
2023-02-28T18:16:57.673Z,66.28
2023-02-28T18:23:03.294Z,56.05
2023-02-28T18:26:09.276Z,32.55
2023-02-28T18:29:24.433Z,31.08
2023-02-28T18:32:27.598Z,35.78
2023-02-28T18:35:37.429Z,34.22
2023-02-28T18:38:40.463Z,40.05
2023-02-28T18:41:42.929Z,37.97
2023-02-28T18:44:45.456Z,41.40
2023-02-28T18:47:48.184Z,42.30
2023-02-28T18:50:51.817Z,41.03
2023-02-28T18:53:54.395Z,39.33
2023-02-28T18:56:56.798Z,36.83
2023-02-28T18:59:59.169Z,34.60
2023-02-28T19:03:01.576Z,38.50
2023-02-28T19:06:04.060Z,42.42
2023-02-28T19:09:06.917Z,38.92
2023-02-28T19:12:09.548Z,36.07
2023-02-28T19:15:12.927Z,36.47
2023-02-28T19:18:15.486Z,36.20
2023-02-28T19:21:19.705Z,37.72
2023-02-28T19:24:22.022Z,35.58
2023-02-28T19:27:24.606Z,36.25
2023-02-28T19:30:26.942Z,32.72
2023-02-28T19:33:29.923Z,31.40
2023-02-28T19:36:32.348Z,34.80
2023-02-28T19:39:41.210Z,40.33
2023-02-28T19:42:43.731Z,49.28
2023-02-28T19:45:46.480Z,43.47
2023-02-28T19:48:48.990Z,45.75
2023-02-28T19:51:51.292Z,58.22
2023-02-28T19:54:53.631Z,48.22
2023-02-28T19:57:56.011Z,52.60
2023-02-28T20:00:58.546Z,42.50
2023-02-28T20:04:02.093Z,43.25
2023-02-28T20:07:04.675Z,42.50
2023-02-28T20:10:07.631Z,44.88
2023-02-28T20:13:09.949Z,46.80
2023-02-28T20:16:14.187Z,51.25
2023-02-28T20:19:17.351Z,52.70
2023-02-28T20:22:19.629Z,37.23
2023-02-28T20:25:22.016Z,41.90
2023-02-28T20:28:24.495Z,43.78
2023-02-28T20:31:28.790Z,50.38
2023-02-28T20:34:31.117Z,47.75
2023-02-28T20:37:33.420Z,46.15
2023-02-28T20:40:35.712Z,50.38
2023-02-28T20:43:38.014Z,46.10
2023-02-28T20:46:41.730Z,49.50
2023-02-28T20:49:44.047Z,47.75
2023-02-28T20:52:46.373Z,57.95
2023-02-28T20:56:02.725Z,59.15
2023-02-28T20:59:05.657Z,44.80
2023-02-28T21:02:08.433Z,54.83
2023-02-28T21:05:10.909Z,50.10
2023-02-28T21:08:13.237Z,56.40
2023-02-28T21:11:18.176Z,54.33
2023-02-28T21:14:20.534Z,55.75
2023-02-28T21:17:22.966Z,53.38
2023-02-28T21:20:25.335Z,61.65
2023-02-28T21:23:27.733Z,46.28
2023-02-28T21:26:30.522Z,45.47
2023-02-28T21:29:33.021Z,35.53
2023-02-28T21:32:35.492Z,50.28
2023-02-28T21:35:37.871Z,50.58
2023-02-28T21:38:41.032Z,53.28
2023-02-28T21:41:43.722Z,53.97
2023-02-28T21:44:46.200Z,54.35
2023-02-28T21:47:48.602Z,50.97
2023-02-28T21:51:12.206Z,54.67
2023-02-28T21:54:15.134Z,44.42
2023-02-28T21:57:17.523Z,43.47
2023-02-28T22:00:20.639Z,58.95
2023-02-28T22:03:22.911Z,48.90
2023-02-28T22:06:30.802Z,62.30
2023-02-28T22:09:33.535Z,56.20
2023-02-28T22:12:35.926Z,58.70
2023-02-28T22:15:38.445Z,60.45
2023-02-28T22:18:41.271Z,66.63
2023-02-28T22:21:45.005Z,65.57
2023-02-28T22:27:49.853Z,54.33
2023-02-28T22:30:52.196Z,58.78
2023-02-28T22:33:57.219Z,57.45
2023-02-28T22:36:59.684Z,61.67
2023-02-28T22:40:02.123Z,52.15
2023-02-28T22:43:06.076Z,58.50
2023-02-28T22:46:10.898Z,57.22
2023-02-28T22:49:13.357Z,58.03
2023-02-28T22:52:15.896Z,52.47
2023-02-28T22:55:18.217Z,58.00
2023-02-28T22:58:20.582Z,55.58
2023-02-28T23:01:26.309Z,46.45
2023-02-28T23:04:28.838Z,43.72
2023-02-28T23:07:31.281Z,52.20
2023-02-28T23:10:33.929Z,48.33
2023-02-28T23:13:36.901Z,43.45
2023-02-28T23:16:42.442Z,42.58
2023-02-28T23:19:44.868Z,49.53
2023-02-28T23:22:50.637Z,44.22
2023-02-28T23:25:53.496Z,42.20
2023-02-28T23:28:55.877Z,39.13
2023-02-28T23:31:58.511Z,38.17
2023-02-28T23:35:00.961Z,38.53
2023-02-28T23:38:03.338Z,42.90
2023-02-28T23:41:12.735Z,41.45
2023-02-28T23:44:17.167Z,40.92
2023-02-28T23:47:19.623Z,38.67
2023-02-28T23:50:21.909Z,35.13
2023-02-28T23:53:25.185Z,32.70
2023-02-28T23:56:27.492Z,23.92
2023-02-28T23:59:29.906Z,30.60
